Time;durP1;ratioP1;P1;durP2;ratioP2;P2;SDS_P1;SDS_P2;PMS_P1;PMS_P2;Temp;Humidity;BMP_temperature;BMP_pressure;BME280_temperature;BME280_humidity;BME280_pressure;Samples;Min_cycle;Max_cycle;Signal;HPM_P1;HPM_P2
2021/09/02 00:01:28;;;;;;;7.60;4.33;;;;;;;16.18;78.69;100073.85;126271;1096;104146;-77
2021/09/02 00:04:02;;;;;;;7.53;4.73;;;;;;;16.22;78.76;100077.39;126085;1099;108042;-75
2021/09/02 00:06:33;;;;;;;8.23;4.90;;;;;;;16.22;79.63;100072.09;126296;1099;104159;-77
2021/09/02 00:12:16;;;;;;;8.03;4.57;;;;;;;16.24;79.46;100078.31;125419;1099;105488;-76
2021/09/02 00:14:55;;;;;;;7.90;4.45;;;;;;;16.23;79.49;100085.34;126238;1099;104134;-76
2021/09/02 00:17:35;;;;;;;6.90;4.83;;;;;;;16.24;79.70;100086.25;126204;1099;104360;-76
2021/09/02 00:20:18;;;;;;;7.70;4.87;;;;;;;16.26;79.67;100084.48;126222;1099;104149;-76
2021/09/02 00:22:55;;;;;;;10.10;4.67;;;;;;;16.24;79.76;100084.48;126146;1099;104315;-75
2021/09/02 00:25:36;;;;;;;8.00;4.70;;;;;;;16.24;79.33;100080.95;126218;1099;104303;-76
2021/09/02 00:28:15;;;;;;;7.67;5.00;;;;;;;16.20;79.13;100077.37;126228;1099;104289;-76
2021/09/02 00:31:03;;;;;;;8.13;5.00;;;;;;;16.19;79.18;100080.93;126201;1099;104150;-76
2021/09/02 00:33:43;;;;;;;8.70;5.07;;;;;;;16.18;80.51;100081.80;126176;1099;104165;-76
2021/09/02 00:36:23;;;;;;;9.03;5.43;;;;;;;16.13;80.39;100095.00;126217;1099;104131;-76
2021/09/02 00:39:04;;;;;;;10.23;5.83;;;;;;;16.10;80.53;100092.33;126214;1099;104216;-76
2021/09/02 00:41:49;;;;;;;8.83;5.20;;;;;;;16.10;80.76;100094.98;126203;1099;104277;-77
2021/09/02 00:47:18;;;;;;;9.35;5.70;;;;;;;16.06;80.51;100093.17;125247;1101;104143;-76
2021/09/02 00:49:53;;;;;;;9.10;5.17;;;;;;;16.07;79.94;100091.44;125162;1102;104188;-76
2021/09/02 00:52:35;;;;;;;11.33;5.90;;;;;;;16.07;81.13;100096.73;125176;1102;104241;-77
2021/09/02 00:55:17;;;;;;;9.63;5.30;;;;;;;16.06;81.31;100093.17;125193;1102;104284;-76
2021/09/02 00:58:06;;;;;;;7.67;5.30;;;;;;;16.06;80.63;100095.81;125098;1102;104120;-76
2021/09/02 01:00:50;;;;;;;8.17;5.50;;;;;;;16.05;81.04;100083.48;125026;1102;104150;-76
2021/09/02 01:03:37;;;;;;;10.73;6.17;;;;;;;16.06;81.48;100092.30;124933;1102;104219;-76
2021/09/02 01:06:10;;;;;;;9.00;5.57;;;;;;;16.06;81.35;100101.11;125153;1102;104178;-77
2021/09/02 01:08:41;;;;;;;9.33;6.10;;;;;;;16.05;80.86;100093.16;125192;1102;104144;-77
2021/09/02 01:11:12;;;;;;;9.87;5.47;;;;;;;16.06;81.45;100093.17;125156;1102;104380;-77
2021/09/02 01:13:44;;;;;;;7.97;5.73;;;;;;;16.06;81.58;100098.47;125241;1102;104158;-77
2021/09/02 01:16:14;;;;;;;9.07;5.93;;;;;;;16.10;81.78;100100.27;125168;1102;104178;-78
2021/09/02 01:18:54;;;;;;;11.70;5.87;;;;;;;16.09;81.61;100087.90;125137;1102;104239;-78
2021/09/02 01:21:42;;;;;;;9.33;5.57;;;;;;;16.10;81.57;100092.33;125299;1102;104150;-76
2021/09/02 01:24:27;;;;;;;9.50;5.73;;;;;;;16.11;81.93;100095.84;124988;1105;104153;-77
2021/09/02 01:27:01;;;;;;;9.00;5.47;;;;;;;16.12;80.96;100098.51;124973;1105;104200;-76
2021/09/02 01:29:46;;;;;;;11.33;5.62;;;;;;;16.14;81.36;100104.72;125021;1102;104159;-75
2021/09/02 01:32:21;;;;;;;10.17;6.07;;;;;;;16.15;81.22;100105.59;125010;1106;104255;-75
2021/09/02 01:35:17;;;;;;;9.63;5.03;;;;;;;16.14;81.30;100102.08;125008;1102;104242;-76
2021/09/02 01:37:53;;;;;;;8.17;4.83;;;;;;;16.17;81.08;100103.83;124968;1102;104457;-76
2021/09/02 01:40:38;;;;;;;9.87;5.53;;;;;;;16.19;81.48;100110.05;125004;1103;104245;-78
2021/09/02 01:43:21;;;;;;;8.67;5.53;;;;;;;16.18;81.82;100108.27;125034;1103;104179;-76
2021/09/02 01:45:56;;;;;;;13.13;5.73;;;;;;;16.20;81.57;100105.63;125002;1105;104261;-77
2021/09/02 01:48:28;;;;;;;11.33;5.62;;;;;;;16.20;81.92;100105.63;124938;1105;104152;-77
2021/09/02 01:51:14;;;;;;;11.03;5.00;;;;;;;16.21;82.38;100102.11;124983;1105;104160;-76
2021/09/02 01:53:58;;;;;;;8.63;5.43;;;;;;;16.19;82.04;100107.40;125050;1106;104192;-77
2021/09/02 01:56:41;;;;;;;8.60;5.10;;;;;;;16.19;81.53;100110.05;124973;1102;104150;-76
2021/09/02 01:59:19;;;;;;;10.25;4.90;;;;;;;16.18;82.00;100109.14;124996;1102;104165;-76
2021/09/02 02:02:15;;;;;;;8.87;5.23;;;;;;;16.12;82.69;100111.74;125030;1105;104232;-75
2021/09/02 02:05:21;;;;;;;8.65;5.00;;;;;;;16.10;82.12;100110.86;124982;1106;104175;-75
2021/09/02 02:08:08;;;;;;;7.90;5.30;;;;;;;16.08;81.88;100117.00;124953;1105;104226;-76
2021/09/02 02:11:30;;;;;;;9.10;5.60;;;;;;;16.04;82.81;100118.75;124996;1105;104169;-77
2021/09/02 02:14:19;;;;;;;10.87;5.47;;;;;;;16.02;81.98;100106.38;125031;1105;104156;-76
2021/09/02 02:16:50;;;;;;;9.17;5.23;;;;;;;16.01;82.57;100116.08;125004;1105;104393;-78
2021/09/02 02:19:34;;;;;;;9.83;5.30;;;;;;;16.01;83.12;100121.38;124920;1105;104399;-77
2021/09/02 02:22:12;;;;;;;9.78;5.30;;;;;;;16.01;82.56;100120.50;124971;1105;104216;-75
2021/09/02 02:24:51;;;;;;;8.63;4.90;;;;;;;16.01;83.19;100116.08;124984;1102;104405;-77
2021/09/02 02:27:55;;;;;;;10.97;5.53;;;;;;;16.02;82.12;100119.60;125010;1102;104223;-76
2021/09/02 02:34:23;;;;;;;7.58;4.80;;;;;;;16.05;82.34;100128.47;125028;1105;104261;-76
2021/09/02 02:37:29;;;;;;;9.00;4.50;;;;;;;16.07;82.32;100126.72;125022;1105;104145;-77
2021/09/02 02:40:02;;;;;;;6.03;4.40;;;;;;;16.08;82.59;100136.44;125166;1102;104584;-77
2021/09/02 02:42:34;;;;;;;8.65;4.70;;;;;;;16.11;82.72;100138.20;125200;1102;104695;-77
2021/09/02 02:45:09;;;;;;;6.90;4.33;;;;;;;16.11;82.30;100139.11;125153;1102;104666;-77
2021/09/02 02:47:47;;;;;;;8.97;4.37;;;;;;;16.11;82.11;100141.75;125183;1102;104248;-76
2021/09/02 02:50:34;;;;;;;7.60;3.97;;;;;;;16.12;81.95;100146.16;125120;1102;104146;-76
2021/09/02 02:53:16;;;;;;;7.37;4.20;;;;;;;16.13;82.63;100145.29;125133;1102;104315;-76
2021/09/02 02:56:11;;;;;;;8.07;3.97;;;;;;;16.15;81.70;100155.89;125163;1102;104149;-76
2021/09/02 02:58:52;;;;;;;6.43;3.50;;;;;;;16.14;82.51;100165.59;125058;1102;104230;-75
2021/09/02 03:04:45;;;;;;;7.00;3.90;;;;;;;16.13;82.46;100166.46;125026;1105;104303;-76
2021/09/02 03:07:40;;;;;;;6.80;3.63;;;;;;;16.12;82.40;100167.33;124974;1105;104402;-76
2021/09/02 03:10:19;;;;;;;6.17;3.70;;;;;;;16.11;82.09;100170.87;124981;1105;104195;-76
2021/09/02 03:12:56;;;;;;;4.57;3.10;;;;;;;16.11;81.42;100176.16;124980;1105;104275;-76
2021/09/02 03:15:41;;;;;;;6.80;3.60;;;;;;;16.09;81.48;100169.95;124978;1105;104242;-77
2021/09/02 03:18:12;;;;;;;7.47;3.50;;;;;;;16.09;81.37;100162.01;124990;1105;104360;-77
2021/09/02 03:20:52;;;;;;;6.60;3.53;;;;;;;16.10;81.17;100173.50;124975;1105;104255;-77
2021/09/02 03:23:37;;;;;;;5.60;3.10;;;;;;;16.09;81.75;100163.78;125021;1105;104150;-76
2021/09/02 03:26:13;;;;;;;4.80;3.33;;;;;;;16.08;81.09;100176.14;124711;1106;104293;-78
2021/09/02 03:28:43;;;;;;;5.83;3.60;;;;;;;16.07;81.24;100169.06;124663;1106;104358;-78
2021/09/02 03:32:09;;;;;;;5.50;3.40;;;;;;;16.07;81.36;100168.19;124739;1105;104226;-76
2021/09/02 03:35:12;;;;;;;7.10;3.87;;;;;;;16.03;81.84;100164.60;125053;1105;104892;-76
2021/09/02 03:37:52;;;;;;;4.43;3.07;;;;;;;16.03;81.67;100187.55;125027;1105;104338;-76
2021/09/02 03:40:26;;;;;;;6.60;3.10;;;;;;;16.01;81.71;100176.95;124948;1105;104265;-76
2021/09/02 03:43:14;;;;;;;6.20;3.10;;;;;;;15.98;81.71;100184.86;124989;1105;104354;-77
2021/09/02 03:45:59;;;;;;;5.43;3.03;;;;;;;15.96;81.59;100174.27;124979;1104;104387;-77
2021/09/02 03:48:33;;;;;;;7.23;3.30;;;;;;;15.97;81.34;100183.08;125025;1105;104207;-76
2021/09/02 03:51:20;;;;;;;6.77;3.00;;;;;;;15.98;81.47;100184.86;124974;1105;104189;-76
2021/09/02 03:53:54;;;;;;;5.83;3.47;;;;;;;15.99;80.52;100187.52;125020;1105;104291;-76
2021/09/02 03:56:34;;;;;;;7.00;3.73;;;;;;;15.94;80.29;100189.25;124966;1102;104146;-76
2021/09/02 03:59:13;;;;;;;8.43;3.77;;;;;;;15.92;80.31;100185.68;125217;1102;104191;-76
2021/09/02 04:01:53;;;;;;;7.20;3.73;;;;;;;15.94;80.52;100204.22;124935;1102;104223;-76
2021/09/02 04:04:38;;;;;;;8.43;4.10;;;;;;;15.93;80.63;100187.47;125196;1102;104162;-76
2021/09/02 04:07:12;;;;;;;8.33;3.93;;;;;;;15.94;80.58;100193.63;125091;1102;104271;-76
2021/09/02 04:09:46;;;;;;;13.93;4.25;;;;;;;15.95;80.08;100206.00;125155;1102;104216;-77
2021/09/02 04:12:20;;;;;;;12.03;4.40;;;;;;;15.95;80.31;100200.71;125176;1102;104284;-76
2021/09/02 04:17:54;;;;;;;12.40;4.50;;;;;;;15.98;79.93;100211.32;125079;1102;104165;-78
2021/09/02 04:20:45;;;;;;;8.97;4.10;;;;;;;15.97;80.37;100210.45;125112;1102;104250;-75
2021/09/02 04:23:17;;;;;;;8.13;4.00;;;;;;;16.00;79.70;100214.86;125007;1102;106938;-76
2021/09/02 04:25:54;;;;;;;7.10;4.00;;;;;;;16.02;79.55;100226.37;125188;1102;104155;-77
2021/09/02 04:28:43;;;;;;;10.80;4.20;;;;;;;16.03;79.55;100224.59;124989;1102;104207;-76
2021/09/02 04:31:43;;;;;;;9.37;3.93;;;;;;;16.04;79.82;100231.67;124954;1102;104342;-76
2021/09/02 04:34:35;;;;;;;10.70;4.53;;;;;;;16.02;79.44;100226.37;125011;1105;104192;-77
2021/09/02 04:44:03;;;;;;;9.00;4.17;;;;;;;16.11;79.60;100252.01;124869;1105;104158;-77
2021/09/02 04:46:59;;;;;;;8.13;4.27;;;;;;;16.08;79.19;100252.89;124993;1106;104209;-77
2021/09/02 04:49:46;;;;;;;11.43;4.90;;;;;;;16.02;78.87;100260.77;124926;1102;104219;-77
2021/09/02 04:52:26;;;;;;;11.67;4.40;;;;;;;15.97;79.13;100268.66;124750;1103;104162;-77
2021/09/02 04:54:59;;;;;;;11.60;4.80;;;;;;;15.91;79.66;100268.60;124939;1102;104361;-76
2021/09/02 04:57:37;;;;;;;7.93;4.50;;;;;;;15.88;79.85;100267.66;124944;1102;104233;-76
2021/09/02 05:00:16;;;;;;;9.33;4.90;;;;;;;15.84;80.12;100276.45;124986;1102;104191;-77
2021/09/02 05:02:50;;;;;;;11.33;5.13;;;;;;;15.76;79.60;100295.73;125038;1102;104431;-77
2021/09/02 05:05:35;;;;;;;12.53;5.63;;;;;;;15.61;80.10;100284.97;125184;1102;104165;-78
2021/09/02 05:08:09;;;;;;;13.13;5.47;;;;;;;15.46;80.46;100297.15;125182;1102;104288;-77
2021/09/02 05:10:40;;;;;;;12.93;5.70;;;;;;;15.31;80.98;100294.30;125217;1102;104315;-78
2021/09/02 05:26:29;;;;;;;14.53;6.77;;;;;;;14.96;82.52;100310.58;124843;1105;109841;-75
2021/09/02 05:30:30;;;;;;;16.10;7.00;;;;;;;14.95;83.22;100294.70;124340;1109;104415;-77
2021/09/02 05:33:30;;;;;;;15.90;7.13;;;;;;;14.95;82.70;100305.27;124243;1112;104346;-75
2021/09/02 05:36:03;;;;;;;13.50;6.77;;;;;;;15.00;83.50;100296.52;124284;1112;104406;-75
2021/09/02 05:38:35;;;;;;;;;;;;;;;14.97;83.31;100283.27;124330;1112;104374;-75
2021/09/02 05:44:17;;;;;;;18.33;7.17;;;;;;;15.16;82.44;100294.10;124308;1112;104415;-76
2021/09/02 05:46:55;;;;;;;17.07;7.33;;;;;;;15.22;82.98;100296.83;124277;1109;117893;-76
2021/09/02 05:49:32;;;;;;;14.83;6.77;;;;;;;15.31;82.78;100286.38;124266;1112;104552;-77
2021/09/02 05:52:10;;;;;;;15.57;6.73;;;;;;;15.41;81.90;100293.58;124307;1112;104171;-77
2021/09/02 05:54:58;;;;;;;17.15;7.30;;;;;;;15.54;82.33;100293.73;124498;1109;104198;-77
2021/09/02 05:57:32;;;;;;;18.00;7.00;;;;;;;15.62;81.69;100290.28;124574;1109;104182;-77
2021/09/02 06:00:21;;;;;;;19.27;6.93;;;;;;;15.74;81.53;100299.25;124478;1109;104260;-77
2021/09/02 06:02:54;;;;;;;12.77;5.83;;;;;;;15.82;81.04;100292.31;124559;1109;104389;-76
2021/09/02 06:05:47;;;;;;;15.93;6.57;;;;;;;15.87;80.99;100293.24;124611;1105;104165;-77
2021/09/02 06:08:33;;;;;;;15.87;6.63;;;;;;;15.90;80.53;100292.40;124793;1102;104175;-76
2021/09/02 06:11:11;;;;;;;13.63;6.43;;;;;;;15.90;80.50;100293.27;124893;1103;104235;-76
2021/09/02 06:13:41;;;;;;;15.33;6.70;;;;;;;15.94;80.49;100291.53;124923;1102;104191;-76
2021/09/02 06:16:13;;;;;;;15.40;6.10;;;;;;;15.99;79.52;100300.44;124968;1102;104149;-75
2021/09/02 06:18:44;;;;;;;15.40;6.43;;;;;;;16.03;79.63;100303.98;124933;1102;104326;-76
2021/09/02 06:21:17;;;;;;;14.40;6.10;;;;;;;16.10;80.08;100296.12;125181;1102;104153;-76
2021/09/02 06:23:50;;;;;;;14.47;5.73;;;;;;;16.18;79.29;100310.31;125146;1102;104169;-75
2021/09/02 06:26:24;;;;;;;15.53;6.17;;;;;;;16.29;78.96;100309.55;125182;1102;104146;-77
2021/09/02 06:28:57;;;;;;;15.43;6.50;;;;;;;16.39;78.69;100310.50;125101;1101;104475;-76
2021/09/02 06:31:29;;;;;;;12.57;5.57;;;;;;;16.49;77.12;100317.67;125217;1102;104172;-76
2021/09/02 06:34:02;;;;;;;13.13;5.90;;;;;;;16.55;77.09;100315.08;125013;1102;104265;-75
2021/09/02 06:36:33;;;;;;;11.53;5.83;;;;;;;16.62;77.55;100311.58;125199;1102;104274;-76
2021/09/02 06:39:05;;;;;;;12.60;5.83;;;;;;;16.73;76.21;100334.63;125120;1102;104198;-78
2021/09/02 06:41:37;;;;;;;;;;;;;;;16.78;76.55;100322.30;125198;1102;104152;-77
2021/09/02 06:44:08;;;;;;;15.07;6.40;;;;;;;16.84;76.17;100336.50;125099;1102;104143;-75
2021/09/02 06:46:39;;;;;;;15.47;6.07;;;;;;;16.92;75.30;100331.26;125113;1102;104153;-77
2021/09/02 06:49:10;;;;;;;14.40;5.63;;;;;;;17.02;75.15;100326.94;125050;1102;104278;-75
2021/09/02 06:51:41;;;;;;;15.87;5.70;;;;;;;17.15;73.82;100328.77;125118;1102;104156;-75
2021/09/02 06:54:15;;;;;;;11.80;5.57;;;;;;;17.22;74.48;100341.19;125101;1102;104319;-75
2021/09/02 06:56:49;;;;;;;12.67;5.57;;;;;;;17.29;74.43;100330.62;125040;1102;104207;-75
2021/09/02 06:59:23;;;;;;;10.70;5.17;;;;;;;17.32;73.58;100334.17;125233;1102;104143;-77
2021/09/02 07:01:56;;;;;;;14.55;5.22;;;;;;;17.33;73.08;100340.38;125136;1102;104434;-77
2021/09/02 07:04:27;;;;;;;15.37;5.70;;;;;;;17.33;73.03;100340.38;125161;1102;104140;-76
2021/09/02 07:06:58;;;;;;;13.97;5.53;;;;;;;17.37;72.92;100334.20;125084;1102;104156;-75
2021/09/02 07:09:32;;;;;;;10.93;4.73;;;;;;;17.43;73.14;100335.10;125188;1102;104149;-77
2021/09/02 07:12:09;;;;;;;14.77;5.73;;;;;;;17.46;72.58;100344.85;125069;1102;104156;-77
2021/09/02 07:14:44;;;;;;;13.60;5.60;;;;;;;17.43;72.31;100345.71;125131;1100;104268;-77
2021/09/02 07:17:17;;;;;;;13.63;5.57;;;;;;;17.40;72.00;100344.81;125133;1102;104149;-77
2021/09/02 07:19:49;;;;;;;10.33;5.00;;;;;;;17.36;71.11;100370.45;125060;1102;104303;-77
2021/09/02 07:22:24;;;;;;;9.97;5.17;;;;;;;17.39;70.08;100374.86;125077;1102;104319;-79
2021/09/02 07:24:56;;;;;;;11.60;4.73;;;;;;;17.46;70.88;100365.20;125192;1102;104156;-78
2021/09/02 07:27:30;;;;;;;12.93;5.22;;;;;;;17.67;71.24;100364.39;125106;1102;104149;-77
2021/09/02 07:30:01;;;;;;;9.70;4.80;;;;;;;17.78;69.50;100373.31;125163;1102;104172;-78
2021/09/02 07:32:33;;;;;;;13.10;4.90;;;;;;;17.84;69.15;100367.13;125084;1102;104201;-77
2021/09/02 07:35:07;;;;;;;12.70;4.60;;;;;;;17.76;67.63;100375.05;126324;1099;104303;-78
2021/09/02 07:37:40;;;;;;;10.87;5.00;;;;;;;17.70;66.69;100370.62;126167;1099;104140;-78
2021/09/02 07:40:16;;;;;;;13.53;5.70;;;;;;;17.78;67.99;100374.19;126264;1099;104159;-76
2021/09/02 07:42:48;;;;;;;9.43;4.60;;;;;;;18.02;68.35;100372.53;125359;1099;104146;-76
2021/09/02 07:45:21;;;;;;;14.60;4.40;;;;;;;18.32;68.18;100368.17;126065;1099;104150;-75
2021/09/02 07:47:53;;;;;;;13.60;4.10;;;;;;;18.58;67.01;100359.37;126154;1099;104300;-76
2021/09/02 07:50:25;;;;;;;11.80;4.17;;;;;;;18.62;64.32;100364.69;126035;1098;104686;-75
2021/09/02 07:52:56;;;;;;;9.23;4.83;;;;;;;18.63;64.72;100371.75;126244;1099;104209;-76
2021/09/02 07:55:27;;;;;;;10.03;4.30;;;;;;;18.52;63.94;100389.47;125339;1099;104149;-78
2021/09/02 07:58:01;;;;;;;8.40;4.40;;;;;;;18.29;63.79;100392.98;126050;1099;104136;-75
2021/09/02 08:00:37;;;;;;;10.23;4.60;;;;;;;18.08;63.97;100392.92;126285;1099;104278;-76
2021/09/02 08:03:08;;;;;;;12.17;4.47;;;;;;;17.99;63.88;100395.54;125388;1099;104229;-75
2021/09/02 08:05:39;;;;;;;9.70;4.37;;;;;;;17.98;62.61;100397.28;125345;1099;104659;-76
2021/09/02 08:08:16;;;;;;;12.90;4.30;;;;;;;18.08;63.38;100387.61;126177;1099;104242;-75
2021/09/02 08:10:49;;;;;;;11.60;4.00;;;;;;;18.21;62.94;100405.33;126101;1099;104321;-75
2021/09/02 08:13:23;;;;;;;9.10;4.05;;;;;;;18.36;62.25;100393.00;126277;1099;104147;-76
2021/09/02 08:16:00;;;;;;;7.80;3.33;;;;;;;18.42;61.56;100400.98;126221;1099;104201;-77
2021/09/02 08:18:36;;;;;;;12.03;4.13;;;;;;;18.32;61.79;100400.96;125684;1098;104764;-77
2021/09/02 08:21:11;;;;;;;11.83;3.70;;;;;;;18.30;61.97;100401.83;126221;1099;104232;-76
2021/09/02 08:23:43;;;;;;;11.20;3.93;;;;;;;18.40;61.30;100384.12;126178;1099;104246;-75
2021/09/02 08:26:14;;;;;;;10.70;3.60;;;;;;;18.59;61.29;100390.34;126265;1099;104191;-76
2021/09/02 08:28:46;;;;;;;8.23;3.63;;;;;;;18.82;61.19;100379.73;126273;1099;104146;-77
2021/09/02 08:31:17;;;;;;;7.67;3.77;;;;;;;18.89;59.85;100413.45;125261;1099;104185;-75
2021/09/02 08:33:51;;;;;;;14.47;4.17;;;;;;;18.75;59.41;100385.95;125354;1099;104434;-79
2021/09/02 08:36:25;;;;;;;11.03;3.95;;;;;;;18.67;59.81;100400.11;126207;1099;104216;-78
2021/09/02 08:38:58;;;;;;;6.57;3.60;;;;;;;18.71;59.86;100389.48;125576;1099;104191;-78
2021/09/02 08:41:33;;;;;;;6.63;3.40;;;;;;;18.78;58.83;100392.15;126196;1099;104146;-77
2021/09/02 08:44:09;;;;;;;9.53;3.63;;;;;;;18.91;58.84;100392.19;126339;1099;104146;-76
2021/09/02 08:46:43;;;;;;;7.13;3.30;;;;;;;18.98;56.73;100404.57;126320;1099;104272;-77
2021/09/02 08:49:19;;;;;;;7.87;3.27;;;;;;;19.05;57.72;100382.42;126170;1099;104136;-75
2021/09/02 08:51:51;;;;;;;7.80;3.30;;;;;;;19.20;58.42;100377.08;125319;1099;104302;-75
2021/09/02 08:54:24;;;;;;;10.28;3.47;;;;;;;19.23;57.36;100392.16;125405;1099;104161;-76
2021/09/02 08:56:55;;;;;;;9.00;3.40;;;;;;;19.03;56.19;100386.86;125976;1099;104179;-77
2021/09/02 08:59:27;;;;;;;11.13;3.73;;;;;;;18.89;56.59;100394.84;125979;1099;104641;-75
2021/09/02 09:01:59;;;;;;;6.47;3.57;;;;;;;18.76;57.93;100388.62;126045;1099;104374;-75
2021/09/02 09:04:38;;;;;;;10.23;3.60;;;;;;;18.75;55.96;100401.91;126057;1099;104168;-75
2021/09/02 09:07:28;;;;;;;9.77;3.50;;;;;;;18.78;55.31;100383.30;126070;1098;104146;-77
2021/09/02 09:10:01;;;;;;;8.57;3.37;;;;;;;18.99;56.70;100380.64;125957;1099;104319;-77
2021/09/02 09:12:38;;;;;;;6.75;3.42;;;;;;;18.96;54.06;100385.09;126113;1099;104688;-77
2021/09/02 09:15:21;;;;;;;7.70;3.40;;;;;;;19.15;55.79;100383.28;125219;1102;104150;-77
2021/09/02 09:18:21;;;;;;;6.77;3.30;;;;;;;19.26;56.39;100391.25;125238;1102;104146;-77
2021/09/02 09:23:58;;;;;;;7.10;3.57;;;;;;;19.08;56.64;100392.18;125179;1102;104146;-76
2021/09/02 09:26:32;;;;;;;10.40;4.00;;;;;;;19.01;56.54;100386.87;125092;1102;104137;-77
2021/09/02 09:29:16;;;;;;;9.05;3.90;;;;;;;19.00;56.59;100393.06;125126;1102;104143;-76
2021/09/02 09:31:52;;;;;;;11.93;3.70;;;;;;;18.89;56.51;100400.16;125108;1102;104150;-76
2021/09/02 09:34:32;;;;;;;7.87;3.72;;;;;;;18.89;56.99;100401.95;125143;1102;104172;-76
2021/09/02 09:37:10;;;;;;;10.30;4.00;;;;;;;18.89;56.70;100412.58;124900;1102;104207;-77
2021/09/02 09:39:49;;;;;;;8.10;3.80;;;;;;;18.99;56.79;100415.20;124923;1102;104194;-77
2021/09/02 09:42:22;;;;;;;9.10;3.90;;;;;;;19.10;56.72;100404.56;125037;1102;104149;-77
2021/09/02 09:44:55;;;;;;;8.87;4.10;;;;;;;19.19;56.22;100399.23;125144;1102;104185;-77
2021/09/02 09:47:33;;;;;;;11.03;3.77;;;;;;;19.33;55.38;100399.22;125049;1102;104145;-77
2021/09/02 09:50:09;;;;;;;10.80;4.10;;;;;;;19.44;54.89;100399.20;125079;1101;104280;-77
2021/09/02 09:52:43;;;;;;;10.23;4.03;;;;;;;19.58;55.00;100407.15;124931;1102;104242;-76
2021/09/02 09:55:16;;;;;;;10.67;4.67;;;;;;;19.67;54.69;100403.59;125032;1102;104178;-77
2021/09/02 09:57:49;;;;;;;11.73;4.47;;;;;;;19.62;54.79;100406.27;125159;1101;104143;-78
2021/09/02 10:00:25;;;;;;;9.53;4.25;;;;;;;19.53;54.57;100416.93;125180;1102;104628;-76
2021/09/02 10:02:57;;;;;;;12.57;4.40;;;;;;;19.44;53.48;100440.90;124962;1102;104178;-77
2021/09/02 10:05:30;;;;;;;7.17;3.53;;;;;;;19.39;52.85;100411.64;125052;1102;109739;-77
2021/09/02 10:08:04;;;;;;;9.33;3.80;;;;;;;19.55;52.20;100428.45;125041;1102;104149;-76
2021/09/02 10:10:36;;;;;;;10.98;4.10;;;;;;;19.55;51.38;100433.77;124894;1102;104149;-77
2021/09/02 10:13:17;;;;;;;14.70;4.27;;;;;;;19.61;52.67;100412.47;124877;1102;104178;-76
2021/09/02 10:15:49;;;;;;;8.50;3.97;;;;;;;19.73;52.52;100409.77;124960;1102;104223;-76
2021/09/02 10:18:24;;;;;;;8.90;4.37;;;;;;;19.81;53.22;100411.56;125044;1102;104153;-77
2021/09/02 10:21:01;;;;;;;8.43;3.97;;;;;;;19.65;52.60;100411.58;125068;1103;104172;-77
2021/09/02 10:23:32;;;;;;;10.33;4.27;;;;;;;19.52;52.45;100405.38;125150;1102;104236;-77
2021/09/02 10:26:29;;;;;;;11.73;4.17;;;;;;;19.58;52.79;100408.02;125205;1099;107585;-76
2021/09/02 10:29:02;;;;;;;11.10;4.40;;;;;;;19.77;52.36;100413.33;125075;1102;104223;-77
2021/09/02 10:31:37;;;;;;;14.98;4.53;;;;;;;19.99;52.07;100418.58;125181;1102;104519;-76
2021/09/02 10:34:29;;;;;;;9.43;4.07;;;;;;;20.05;50.80;100422.09;125130;1099;104174;-77
2021/09/02 10:37:14;;;;;;;10.63;4.40;;;;;;;19.84;49.83;100425.73;125260;1102;104417;-76
2021/09/02 10:39:49;;;;;;;8.97;4.30;;;;;;;19.87;50.27;100432.84;125203;1102;104214;-76
2021/09/02 10:42:44;;;;;;;10.63;4.30;;;;;;;19.95;50.29;100433.69;125244;1102;104628;-76
2021/09/02 10:45:35;;;;;;;8.93;3.87;;;;;;;19.81;50.01;100443.52;125216;1102;104386;-78
2021/09/02 10:48:15;;;;;;;9.87;4.90;;;;;;;19.67;50.75;100444.39;125188;1102;104140;-76
2021/09/02 10:50:52;;;;;;;12.77;4.50;;;;;;;19.79;50.38;100450.59;125242;1100;104354;-77
2021/09/02 10:53:26;;;;;;;12.00;4.50;;;;;;;19.91;49.70;100446.14;125200;1102;104647;-77
2021/09/02 10:55:59;;;;;;;;;;;;;;;19.85;49.70;100461.23;125200;1102;104195;-77
2021/09/02 10:58:50;;;;;;;9.10;4.03;;;;;;;19.83;49.43;100453.25;125117;1102;104155;-75
2021/09/02 11:01:33;;;;;;;12.03;4.33;;;;;;;20.13;48.37;100445.15;125186;1102;104319;-77
2021/09/02 11:04:15;;;;;;;10.43;4.03;;;;;;;20.33;47.78;100459.26;125277;1102;104307;-77
2021/09/02 11:06:54;;;;;;;11.20;4.65;;;;;;;20.35;48.70;100453.92;125144;1102;104159;-77
2021/09/02 11:09:33;;;;;;;9.60;4.00;;;;;;;20.44;47.99;100438.79;125228;1102;104294;-76
2021/09/02 11:12:10;;;;;;;8.20;3.80;;;;;;;20.46;49.62;100455.64;125188;1102;104190;-79
2021/09/02 11:14:44;;;;;;;7.73;4.17;;;;;;;20.42;47.96;100456.55;125186;1102;104428;-75
2021/09/02 11:17:17;;;;;;;9.67;4.57;;;;;;;20.33;48.49;100453.05;125143;1102;104315;-74
2021/09/02 11:19:49;;;;;;;;;;;;;;;20.18;48.46;100452.24;125213;1102;104309;-75
2021/09/02 11:22:24;;;;;;;9.67;4.20;;;;;;;20.18;48.09;100470.89;125183;1102;104249;-76
2021/09/02 11:25:01;;;;;;;9.10;4.03;;;;;;;20.18;48.64;100461.98;125189;1102;104181;-77
2021/09/02 11:27:36;;;;;;;10.63;4.37;;;;;;;20.14;47.54;100471.78;125209;1102;104178;-78
2021/09/02 11:30:23;;;;;;;12.70;4.80;;;;;;;19.99;48.69;100462.09;125251;1102;104201;-78
2021/09/02 11:33:05;;;;;;;11.63;4.43;;;;;;;19.81;47.99;100467.47;125264;1102;104222;-76
2021/09/02 11:35:39;;;;;;;12.53;5.07;;;;;;;19.66;49.13;100463.91;125195;1102;104312;-77
2021/09/02 11:38:15;;;;;;;13.23;4.30;;;;;;;19.52;48.75;100476.36;125227;1102;104205;-76
2021/09/02 11:40:48;;;;;;;11.07;4.63;;;;;;;19.49;48.66;100468.38;125277;1102;104155;-76
2021/09/02 11:43:20;;;;;;;;;;;;;;;19.49;48.98;100469.25;125260;1102;104236;-77
2021/09/02 11:45:56;;;;;;;12.47;4.80;;;;;;;19.55;48.76;100482.55;125105;1102;104207;-78
2021/09/02 11:48:44;;;;;;;14.83;4.80;;;;;;;19.65;48.62;100470.14;125174;1101;104182;-77
2021/09/02 11:51:24;;;;;;;11.27;4.90;;;;;;;19.73;48.70;100463.02;125157;1102;104241;-77
2021/09/02 11:54:09;;;;;;;11.97;4.70;;;;;;;19.69;48.57;100476.33;125226;1099;104165;-77
2021/09/02 11:56:46;;;;;;;10.27;4.50;;;;;;;19.68;49.32;100477.20;125172;1099;104146;-76
2021/09/02 11:59:21;;;;;;;10.10;4.30;;;;;;;19.58;48.88;100495.85;125252;1099;104145;-77
2021/09/02 12:01:57;;;;;;;11.50;4.47;;;;;;;19.51;49.72;100485.22;125212;1099;104255;-76
2021/09/02 12:04:32;;;;;;;12.83;4.43;;;;;;;19.37;49.32;100491.45;125255;1099;104208;-76
2021/09/02 12:07:05;;;;;;;11.63;4.60;;;;;;;19.26;49.67;100502.98;125193;1099;104162;-76
2021/09/02 12:09:40;;;;;;;17.90;4.93;;;;;;;19.19;49.12;100502.97;125231;1102;104274;-76
2021/09/02 12:12:11;;;;;;;11.65;4.50;;;;;;;19.19;49.89;100502.09;125141;1102;104261;-76
2021/09/02 12:14:50;;;;;;;11.23;4.47;;;;;;;19.25;50.11;100498.56;125196;1102;104182;-77
2021/09/02 12:17:40;;;;;;;13.47;4.70;;;;;;;19.33;50.29;100492.33;125095;1099;104168;-77
2021/09/02 12:20:12;;;;;;;11.60;4.50;;;;;;;19.35;49.31;100495.91;125280;1102;104185;-76
2021/09/02 12:22:45;;;;;;;11.68;4.65;;;;;;;19.36;50.28;100481.69;125183;1099;104126;-77
2021/09/02 12:25:25;;;;;;;10.57;4.63;;;;;;;19.37;49.02;100493.24;125188;1102;104351;-76
2021/09/02 12:28:14;;;;;;;11.33;4.13;;;;;;;19.31;50.01;100483.48;125157;1102;104143;-76
2021/09/02 12:34:31;;;;;;;10.30;4.33;;;;;;;19.48;49.23;100498.56;125158;1099;104201;-76
2021/09/02 12:37:12;;;;;;;8.23;4.27;;;;;;;19.65;49.47;100499.41;125147;1099;104204;-75
2021/09/02 12:39:54;;;;;;;12.30;4.33;;;;;;;19.74;48.78;100504.72;125236;1099;104353;-76
2021/09/02 12:42:27;;;;;;;10.27;3.90;;;;;;;19.67;49.88;100508.27;125156;1102;104226;-75
2021/09/02 12:45:17;;;;;;;13.38;4.40;;;;;;;19.58;49.31;100509.16;125128;1098;104197;-77